Armstrong, Texas
Current Conditions -  °F | °C
As of 2:15 PM on Thursday 23 Oct 2014 (Local Time) from KBKS Reporting Station
Scattered Clouds Scattered Clouds  
Wind Chill: 27°   Ceiling: Unl
Heat Index: 28°   Visibility: 10mi
Dew Point: 16°   Wind: 3mph
Humidity: 52%   Direction: 40°NE
Pressure: 30.06"   Gusts: NA
Location:  26.92°N, 97.79°W
Report Text: KBKS 231915Z AUTO 04003KT 10SM SCT120 27/16 A3006 RMK AO1 T02700164
Loading
Personal Weather Stations






























Interactive Weather Map
Tropical Storm Tracking
New forecast layout! Learn more

10-Day Weather Forecast

Advertisements
Track Severe Weather on mobile